sensor_id;sensor_type;location;lat;lon;timestamp;temperature;humidity
52459;DHT22;38372;52.902;6.024;2023-05-20T00:00:29;9.40;99.90
52459;DHT22;38372;52.902;6.024;2023-05-20T00:02:54;9.40;99.90
52459;DHT22;38372;52.902;6.024;2023-05-20T00:05:22;9.40;99.90
52459;DHT22;38372;52.902;6.024;2023-05-20T00:07:48;9.40;99.90
52459;DHT22;38372;52.902;6.024;2023-05-20T00:10:14;9.30;99.90
52459;DHT22;38372;52.902;6.024;2023-05-20T00:12:39;9.30;99.90
52459;DHT22;38372;52.902;6.024;2023-05-20T00:15:06;9.30;99.90
52459;DHT22;38372;52.902;6.024;2023-05-20T00:17:32;9.30;99.90
52459;DHT22;38372;52.902;6.024;2023-05-20T00:19:57;9.20;99.90
52459;DHT22;38372;52.902;6.024;2023-05-20T00:22:24;9.20;99.90
52459;DHT22;38372;52.902;6.024;2023-05-20T00:24:50;9.20;99.90
52459;DHT22;38372;52.902;6.024;2023-05-20T00:27:16;9.10;99.90
52459;DHT22;38372;52.902;6.024;2023-05-20T00:29:42;9.10;99.90
52459;DHT22;38372;52.902;6.024;2023-05-20T00:32:08;9.10;99.90
52459;DHT22;38372;52.902;6.024;2023-05-20T00:34:33;9.00;99.90
52459;DHT22;38372;52.902;6.024;2023-05-20T00:36:59;9.00;99.90
52459;DHT22;38372;52.902;6.024;2023-05-20T00:39:25;9.00;99.90
52459;DHT22;38372;52.902;6.024;2023-05-20T00:41:51;9.00;99.90
52459;DHT22;38372;52.902;6.024;2023-05-20T00:44:17;9.00;99.90
52459;DHT22;38372;52.902;6.024;2023-05-20T00:46:44;8.90;99.90
52459;DHT22;38372;52.902;6.024;2023-05-20T00:49:10;8.90;99.90
52459;DHT22;38372;52.902;6.024;2023-05-20T00:51:36;8.90;99.90
52459;DHT22;38372;52.902;6.024;2023-05-20T00:54:02;8.80;99.90
52459;DHT22;38372;52.902;6.024;2023-05-20T00:56:28;8.80;99.90
52459;DHT22;38372;52.902;6.024;2023-05-20T00:58:55;8.70;99.90
52459;DHT22;38372;52.902;6.024;2023-05-20T01:01:21;8.70;99.90
52459;DHT22;38372;52.902;6.024;2023-05-20T01:03:47;8.70;99.90
52459;DHT22;38372;52.902;6.024;2023-05-20T01:06:13;8.70;99.90
52459;DHT22;38372;52.902;6.024;2023-05-20T01:08:39;8.70;99.90
52459;DHT22;38372;52.902;6.024;2023-05-20T01:11:18;8.70;99.90
52459;DHT22;38372;52.902;6.024;2023-05-20T01:13:50;8.70;99.90
52459;DHT22;38372;52.902;6.024;2023-05-20T01:16:19;8.60;99.90
52459;DHT22;38372;52.902;6.024;2023-05-20T01:18:48;8.60;99.90
52459;DHT22;38372;52.902;6.024;2023-05-20T01:21:16;8.60;99.90
52459;DHT22;38372;52.902;6.024;2023-05-20T01:23:43;8.60;99.90
52459;DHT22;38372;52.902;6.024;2023-05-20T01:26:09;8.60;99.90
52459;DHT22;38372;52.902;6.024;2023-05-20T01:28:38;8.60;99.90
52459;DHT22;38372;52.902;6.024;2023-05-20T01:31:08;8.60;99.90
52459;DHT22;38372;52.902;6.024;2023-05-20T01:33:36;8.60;99.90
52459;DHT22;38372;52.902;6.024;2023-05-20T01:36:04;8.60;99.90
52459;DHT22;38372;52.902;6.024;2023-05-20T01:38:31;8.50;99.90
52459;DHT22;38372;52.902;6.024;2023-05-20T01:40:58;8.60;99.90
52459;DHT22;38372;52.902;6.024;2023-05-20T01:43:25;8.50;99.90
52459;DHT22;38372;52.902;6.024;2023-05-20T01:45:51;8.50;99.90
52459;DHT22;38372;52.902;6.024;2023-05-20T01:48:17;8.50;99.90
52459;DHT22;38372;52.902;6.024;2023-05-20T01:50:43;8.50;99.90
52459;DHT22;38372;52.902;6.024;2023-05-20T01:53:08;8.50;99.90
52459;DHT22;38372;52.902;6.024;2023-05-20T01:55:35;8.50;99.90
52459;DHT22;38372;52.902;6.024;2023-05-20T01:58:01;8.50;99.90
52459;DHT22;38372;52.902;6.024;2023-05-20T02:00:27;8.40;99.90
52459;DHT22;38372;52.902;6.024;2023-05-20T02:02:53;8.40;99.90
52459;DHT22;38372;52.902;6.024;2023-05-20T02:05:19;8.40;99.90
52459;DHT22;38372;52.902;6.024;2023-05-20T02:07:45;8.40;99.90
52459;DHT22;38372;52.902;6.024;2023-05-20T02:10:10;8.40;99.90
52459;DHT22;38372;52.902;6.024;2023-05-20T02:12:36;8.40;99.90
52459;DHT22;38372;52.902;6.024;2023-05-20T02:15:02;8.40;99.90
52459;DHT22;38372;52.902;6.024;2023-05-20T02:17:28;8.40;99.90
52459;DHT22;38372;52.902;6.024;2023-05-20T02:19:54;8.40;99.90
52459;DHT22;38372;52.902;6.024;2023-05-20T02:22:20;8.40;99.90
52459;DHT22;38372;52.902;6.024;2023-05-20T02:24:45;8.30;99.90
52459;DHT22;38372;52.902;6.024;2023-05-20T02:27:12;8.30;99.90
52459;DHT22;38372;52.902;6.024;2023-05-20T02:29:38;8.30;99.90
52459;DHT22;38372;52.902;6.024;2023-05-20T02:32:04;8.30;99.90
52459;DHT22;38372;52.902;6.024;2023-05-20T02:34:30;8.30;99.90
52459;DHT22;38372;52.902;6.024;2023-05-20T02:36:56;8.30;99.90
52459;DHT22;38372;52.902;6.024;2023-05-20T02:39:22;8.40;99.90
52459;DHT22;38372;52.902;6.024;2023-05-20T02:41:48;8.40;99.90
52459;DHT22;38372;52.902;6.024;2023-05-20T02:44:14;8.40;99.90
52459;DHT22;38372;52.902;6.024;2023-05-20T02:46:40;8.40;99.90
52459;DHT22;38372;52.902;6.024;2023-05-20T02:49:05;8.40;99.90
52459;DHT22;38372;52.902;6.024;2023-05-20T02:51:31;8.50;99.90
52459;DHT22;38372;52.902;6.024;2023-05-20T02:53:58;8.50;99.90
52459;DHT22;38372;52.902;6.024;2023-05-20T02:56:23;8.50;99.90
52459;DHT22;38372;52.902;6.024;2023-05-20T02:58:49;8.50;99.90
52459;DHT22;38372;52.902;6.024;2023-05-20T03:01:15;8.50;99.90
52459;DHT22;38372;52.902;6.024;2023-05-20T03:03:41;8.50;99.90
52459;DHT22;38372;52.902;6.024;2023-05-20T03:06:07;8.60;99.90
52459;DHT22;38372;52.902;6.024;2023-05-20T03:08:33;8.50;99.90
52459;DHT22;38372;52.902;6.024;2023-05-20T03:10:59;8.50;99.90
52459;DHT22;38372;52.902;6.024;2023-05-20T03:13:25;8.50;99.90
52459;DHT22;38372;52.902;6.024;2023-05-20T03:15:51;8.50;99.90
52459;DHT22;38372;52.902;6.024;2023-05-20T03:18:17;8.50;99.90
52459;DHT22;38372;52.902;6.024;2023-05-20T03:20:43;8.50;99.90
52459;DHT22;38372;52.902;6.024;2023-05-20T03:23:09;8.40;99.90
52459;DHT22;38372;52.902;6.024;2023-05-20T03:25:36;8.40;99.90
52459;DHT22;38372;52.902;6.024;2023-05-20T03:28:02;8.40;99.90
52459;DHT22;38372;52.902;6.024;2023-05-20T03:30:28;8.40;99.90
52459;DHT22;38372;52.902;6.024;2023-05-20T03:32:57;8.40;99.90
52459;DHT22;38372;52.902;6.024;2023-05-20T03:35:23;8.40;99.90
52459;DHT22;38372;52.902;6.024;2023-05-20T03:37:49;8.40;99.90
52459;DHT22;38372;52.902;6.024;2023-05-20T03:40:18;8.40;99.90
52459;DHT22;38372;52.902;6.024;2023-05-20T03:42:47;8.40;99.90
52459;DHT22;38372;52.902;6.024;2023-05-20T03:45:14;8.40;99.90
52459;DHT22;38372;52.902;6.024;2023-05-20T03:47:40;8.40;99.90
52459;DHT22;38372;52.902;6.024;2023-05-20T03:50:06;8.30;99.90
52459;DHT22;38372;52.902;6.024;2023-05-20T03:52:32;8.40;99.90
52459;DHT22;38372;52.902;6.024;2023-05-20T03:54:59;8.30;99.90
52459;DHT22;38372;52.902;6.024;2023-05-20T03:57:25;8.30;99.90
52459;DHT22;38372;52.902;6.024;2023-05-20T03:59:51;8.40;99.90
52459;DHT22;38372;52.902;6.024;2023-05-20T04:02:17;8.40;99.90
52459;DHT22;38372;52.902;6.024;2023-05-20T04:04:42;8.40;99.90
52459;DHT22;38372;52.902;6.024;2023-05-20T04:07:09;8.50;99.90
52459;DHT22;38372;52.902;6.024;2023-05-20T04:09:36;8.50;99.90
52459;DHT22;38372;52.902;6.024;2023-05-20T04:12:01;8.60;99.90
52459;DHT22;38372;52.902;6.024;2023-05-20T04:14:27;8.60;99.90
52459;DHT22;38372;52.902;6.024;2023-05-20T04:16:53;8.60;99.90
52459;DHT22;38372;52.902;6.024;2023-05-20T04:19:19;8.70;99.90
52459;DHT22;38372;52.902;6.024;2023-05-20T04:21:45;8.70;99.90
52459;DHT22;38372;52.902;6.024;2023-05-20T04:24:11;8.80;99.90
52459;DHT22;38372;52.902;6.024;2023-05-20T04:26:37;8.90;99.90
52459;DHT22;38372;52.902;6.024;2023-05-20T04:29:03;8.90;99.90
52459;DHT22;38372;52.902;6.024;2023-05-20T04:31:29;9.00;99.90
52459;DHT22;38372;52.902;6.024;2023-05-20T04:33:56;9.00;99.90
52459;DHT22;38372;52.902;6.024;2023-05-20T04:36:22;9.00;99.90
52459;DHT22;38372;52.902;6.024;2023-05-20T04:38:53;9.00;99.90
52459;DHT22;38372;52.902;6.024;2023-05-20T04:41:19;9.10;99.90
52459;DHT22;38372;52.902;6.024;2023-05-20T04:43:45;9.00;99.90
52459;DHT22;38372;52.902;6.024;2023-05-20T04:46:11;9.10;99.90
52459;DHT22;38372;52.902;6.024;2023-05-20T04:48:37;9.10;99.90
52459;DHT22;38372;52.902;6.024;2023-05-20T04:51:03;9.00;99.90
52459;DHT22;38372;52.902;6.024;2023-05-20T04:53:29;9.10;99.90
52459;DHT22;38372;52.902;6.024;2023-05-20T04:55:58;9.10;99.90
52459;DHT22;38372;52.902;6.024;2023-05-20T04:58:24;9.20;99.90
52459;DHT22;38372;52.902;6.024;2023-05-20T05:00:50;9.30;99.90
52459;DHT22;38372;52.902;6.024;2023-05-20T05:03:17;9.30;99.90
52459;DHT22;38372;52.902;6.024;2023-05-20T05:05:43;9.40;99.90
52459;DHT22;38372;52.902;6.024;2023-05-20T05:08:09;9.60;99.90
52459;DHT22;38372;52.902;6.024;2023-05-20T05:10:38;9.70;99.90
52459;DHT22;38372;52.902;6.024;2023-05-20T05:13:03;9.90;99.90
52459;DHT22;38372;52.902;6.024;2023-05-20T05:15:29;10.10;99.90
52459;DHT22;38372;52.902;6.024;2023-05-20T05:17:55;10.30;99.90
52459;DHT22;38372;52.902;6.024;2023-05-20T05:20:22;10.50;99.90
52459;DHT22;38372;52.902;6.024;2023-05-20T05:22:48;10.60;99.90
52459;DHT22;38372;52.902;6.024;2023-05-20T05:25:15;10.70;99.90
52459;DHT22;38372;52.902;6.024;2023-05-20T05:27:41;10.80;99.90
52459;DHT22;38372;52.902;6.024;2023-05-20T05:30:07;10.80;99.90
52459;DHT22;38372;52.902;6.024;2023-05-20T05:32:33;10.90;99.90
52459;DHT22;38372;52.902;6.024;2023-05-20T05:34:59;10.90;99.90
52459;DHT22;38372;52.902;6.024;2023-05-20T05:37:25;10.90;99.90
52459;DHT22;38372;52.902;6.024;2023-05-20T05:39:51;10.90;99.90
52459;DHT22;38372;52.902;6.024;2023-05-20T05:42:17;10.90;99.90
52459;DHT22;38372;52.902;6.024;2023-05-20T05:44:43;10.90;99.90
52459;DHT22;38372;52.902;6.024;2023-05-20T05:47:09;10.90;99.90
52459;DHT22;38372;52.902;6.024;2023-05-20T05:49:36;10.90;99.90
52459;DHT22;38372;52.902;6.024;2023-05-20T05:52:02;11.00;99.90
52459;DHT22;38372;52.902;6.024;2023-05-20T05:54:28;11.00;99.90
52459;DHT22;38372;52.902;6.024;2023-05-20T05:56:54;11.10;99.90
52459;DHT22;38372;52.902;6.024;2023-05-20T05:59:21;11.20;99.90
52459;DHT22;38372;52.902;6.024;2023-05-20T06:01:47;11.30;99.90
52459;DHT22;38372;52.902;6.024;2023-05-20T06:04:13;11.50;99.90
52459;DHT22;38372;52.902;6.024;2023-05-20T06:06:40;11.80;99.90
52459;DHT22;38372;52.902;6.024;2023-05-20T06:09:05;12.10;99.90
52459;DHT22;38372;52.902;6.024;2023-05-20T06:11:31;12.50;99.90
52459;DHT22;38372;52.902;6.024;2023-05-20T06:13:57;12.70;99.90
52459;DHT22;38372;52.902;6.024;2023-05-20T06:16:23;12.90;99.90
52459;DHT22;38372;52.902;6.024;2023-05-20T06:18:49;13.00;99.90
52459;DHT22;38372;52.902;6.024;2023-05-20T06:21:15;13.10;99.90
52459;DHT22;38372;52.902;6.024;2023-05-20T06:23:41;13.30;99.90
52459;DHT22;38372;52.902;6.024;2023-05-20T06:26:07;13.50;99.90
52459;DHT22;38372;52.902;6.024;2023-05-20T06:28:33;13.80;99.90
52459;DHT22;38372;52.902;6.024;2023-05-20T06:30:59;14.10;99.90
52459;DHT22;38372;52.902;6.024;2023-05-20T06:33:26;14.30;99.90
52459;DHT22;38372;52.902;6.024;2023-05-20T06:35:55;14.60;99.90
52459;DHT22;38372;52.902;6.024;2023-05-20T06:38:21;14.90;99.90
52459;DHT22;38372;52.902;6.024;2023-05-20T06:40:48;15.10;99.90
52459;DHT22;38372;52.902;6.024;2023-05-20T06:43:15;15.30;99.90
52459;DHT22;38372;52.902;6.024;2023-05-20T06:45:41;15.50;99.90
52459;DHT22;38372;52.902;6.024;2023-05-20T06:48:07;15.70;99.90
52459;DHT22;38372;52.902;6.024;2023-05-20T06:50:33;15.80;99.90
52459;DHT22;38372;52.902;6.024;2023-05-20T06:52:59;15.90;99.90
52459;DHT22;38372;52.902;6.024;2023-05-20T06:55:26;16.10;99.90
52459;DHT22;38372;52.902;6.024;2023-05-20T06:57:52;16.10;99.90
52459;DHT22;38372;52.902;6.024;2023-05-20T07:00:18;16.20;99.90
52459;DHT22;38372;52.902;6.024;2023-05-20T07:02:44;16.30;99.90
52459;DHT22;38372;52.902;6.024;2023-05-20T07:05:11;16.60;99.90
52459;DHT22;38372;52.902;6.024;2023-05-20T07:07:37;16.70;99.90
52459;DHT22;38372;52.902;6.024;2023-05-20T07:10:04;16.90;99.90
52459;DHT22;38372;52.902;6.024;2023-05-20T07:12:31;17.00;99.90
52459;DHT22;38372;52.902;6.024;2023-05-20T07:14:57;17.20;99.90
52459;DHT22;38372;52.902;6.024;2023-05-20T07:17:23;17.30;99.90
52459;DHT22;38372;52.902;6.024;2023-05-20T07:19:50;17.40;99.90
52459;DHT22;38372;52.902;6.024;2023-05-20T07:22:15;17.60;99.90
52459;DHT22;38372;52.902;6.024;2023-05-20T07:24:41;17.80;99.90
52459;DHT22;38372;52.902;6.024;2023-05-20T07:27:07;18.00;99.90
52459;DHT22;38372;52.902;6.024;2023-05-20T07:29:36;18.20;99.90
52459;DHT22;38372;52.902;6.024;2023-05-20T07:32:03;18.30;99.90
52459;DHT22;38372;52.902;6.024;2023-05-20T07:34:30;18.30;99.90
52459;DHT22;38372;52.902;6.024;2023-05-20T07:36:56;18.40;99.90
52459;DHT22;38372;52.902;6.024;2023-05-20T07:39:22;18.50;99.90
52459;DHT22;38372;52.902;6.024;2023-05-20T07:41:49;18.70;99.90
52459;DHT22;38372;52.902;6.024;2023-05-20T07:44:15;18.80;99.90
52459;DHT22;38372;52.902;6.024;2023-05-20T07:46:43;19.00;99.90
52459;DHT22;38372;52.902;6.024;2023-05-20T07:49:09;19.10;99.90
52459;DHT22;38372;52.902;6.024;2023-05-20T07:51:35;19.30;99.90
52459;DHT22;38372;52.902;6.024;2023-05-20T07:54:02;19.50;99.90
52459;DHT22;38372;52.902;6.024;2023-05-20T07:56:28;19.60;99.90
52459;DHT22;38372;52.902;6.024;2023-05-20T07:58:56;19.70;99.90
52459;DHT22;38372;52.902;6.024;2023-05-20T08:01:23;19.80;99.90
52459;DHT22;38372;52.902;6.024;2023-05-20T08:03:49;19.90;99.90
52459;DHT22;38372;52.902;6.024;2023-05-20T08:06:15;20.00;99.90
52459;DHT22;38372;52.902;6.024;2023-05-20T08:08:41;20.00;99.90
52459;DHT22;38372;52.902;6.024;2023-05-20T08:11:08;20.10;99.90
52459;DHT22;38372;52.902;6.024;2023-05-20T08:13:34;20.20;99.90
52459;DHT22;38372;52.902;6.024;2023-05-20T08:16:00;20.40;99.90
52459;DHT22;38372;52.902;6.024;2023-05-20T08:18:28;20.50;99.90
52459;DHT22;38372;52.902;6.024;2023-05-20T08:20:54;20.60;99.90
52459;DHT22;38372;52.902;6.024;2023-05-20T08:23:20;20.60;99.90
52459;DHT22;38372;52.902;6.024;2023-05-20T08:25:46;20.70;99.90
52459;DHT22;38372;52.902;6.024;2023-05-20T08:28:13;20.90;99.90
52459;DHT22;38372;52.902;6.024;2023-05-20T08:30:39;21.00;99.90
52459;DHT22;38372;52.902;6.024;2023-05-20T08:33:05;21.10;99.90
52459;DHT22;38372;52.902;6.024;2023-05-20T08:35:32;21.10;99.90
52459;DHT22;38372;52.902;6.024;2023-05-20T08:37:58;21.30;99.90
52459;DHT22;38372;52.902;6.024;2023-05-20T08:40:25;21.20;99.90
52459;DHT22;38372;52.902;6.024;2023-05-20T08:42:51;21.30;99.90
52459;DHT22;38372;52.902;6.024;2023-05-20T08:45:18;21.40;99.90
52459;DHT22;38372;52.902;6.024;2023-05-20T08:47:45;21.40;99.90
52459;DHT22;38372;52.902;6.024;2023-05-20T08:50:12;21.40;99.90
52459;DHT22;38372;52.902;6.024;2023-05-20T08:52:45;21.30;99.90
52459;DHT22;38372;52.902;6.024;2023-05-20T08:58:06;21.10;99.90
52459;DHT22;38372;52.902;6.024;2023-05-20T09:00:32;21.10;99.90
52459;DHT22;38372;52.902;6.024;2023-05-20T09:02:59;21.30;99.90
52459;DHT22;38372;52.902;6.024;2023-05-20T09:05:25;21.40;99.90
52459;DHT22;38372;52.902;6.024;2023-05-20T09:07:51;21.50;99.90
52459;DHT22;38372;52.902;6.024;2023-05-20T09:10:18;21.50;99.90
52459;DHT22;38372;52.902;6.024;2023-05-20T09:12:44;21.50;99.90
52459;DHT22;38372;52.902;6.024;2023-05-20T09:15:10;21.50;99.90
52459;DHT22;38372;52.902;6.024;2023-05-20T09:17:37;21.70;99.90
52459;DHT22;38372;52.902;6.024;2023-05-20T09:20:08;21.80;99.90
52459;DHT22;38372;52.902;6.024;2023-05-20T09:22:35;22.00;99.90
52459;DHT22;38372;52.902;6.024;2023-05-20T09:25:03;22.10;99.90
52459;DHT22;38372;52.902;6.024;2023-05-20T09:27:29;22.00;99.90
52459;DHT22;38372;52.902;6.024;2023-05-20T09:29:55;22.10;99.90
52459;DHT22;38372;52.902;6.024;2023-05-20T09:32:21;22.10;96.50
52459;DHT22;38372;52.902;6.024;2023-05-20T09:34:48;22.20;98.70
52459;DHT22;38372;52.902;6.024;2023-05-20T09:37:17;22.20;98.70
52459;DHT22;38372;52.902;6.024;2023-05-20T09:39:58;22.20;98.80
52459;DHT22;38372;52.902;6.024;2023-05-20T09:42:34;22.30;97.20
52459;DHT22;38372;52.902;6.024;2023-05-20T09:45:03;22.40;97.50
52459;DHT22;38372;52.902;6.024;2023-05-20T09:47:29;22.50;97.20
52459;DHT22;38372;52.902;6.024;2023-05-20T09:49:57;22.50;95.40
52459;DHT22;38372;52.902;6.024;2023-05-20T09:52:25;22.50;95.70
52459;DHT22;38372;52.902;6.024;2023-05-20T09:54:52;22.60;94.90
52459;DHT22;38372;52.902;6.024;2023-05-20T09:57:20;22.70;95.30
52459;DHT22;38372;52.902;6.024;2023-05-20T09:59:46;22.80;95.20
52459;DHT22;38372;52.902;6.024;2023-05-20T10:02:13;22.80;94.10
52459;DHT22;38372;52.902;6.024;2023-05-20T10:04:43;22.80;94.30
52459;DHT22;38372;52.902;6.024;2023-05-20T10:08:09;22.90;92.20
52459;DHT22;38372;52.902;6.024;2023-05-20T10:10:48;22.90;93.90
52459;DHT22;38372;52.902;6.024;2023-05-20T10:13:44;23.00;90.10
52459;DHT22;38372;52.902;6.024;2023-05-20T10:17:16;22.90;93.20
52459;DHT22;38372;52.902;6.024;2023-05-20T10:19:32;23.20;93.60
52459;DHT22;38372;52.902;6.024;2023-05-20T10:22:03;23.50;91.50
52459;DHT22;38372;52.902;6.024;2023-05-20T10:24:40;23.50;91.00
52459;DHT22;38372;52.902;6.024;2023-05-20T10:27:10;23.40;86.70
52459;DHT22;38372;52.902;6.024;2023-05-20T10:29:56;23.10;88.80
52459;DHT22;38372;52.902;6.024;2023-05-20T10:32:25;22.90;90.60
52459;DHT22;38372;52.902;6.024;2023-05-20T10:35:00;22.80;89.80
52459;DHT22;38372;52.902;6.024;2023-05-20T10:37:40;22.70;90.10
52459;DHT22;38372;52.902;6.024;2023-05-20T10:40:11;22.70;88.60
52459;DHT22;38372;52.902;6.024;2023-05-20T10:42:37;22.60;90.30
52459;DHT22;38372;52.902;6.024;2023-05-20T10:45:03;22.60;90.60
52459;DHT22;38372;52.902;6.024;2023-05-20T10:47:30;22.60;87.40
52459;DHT22;38372;52.902;6.024;2023-05-20T10:49:56;22.60;89.00
52459;DHT22;38372;52.902;6.024;2023-05-20T10:52:23;22.60;88.90
52459;DHT22;38372;52.902;6.024;2023-05-20T10:57:19;22.50;88.00
52459;DHT22;38372;52.902;6.024;2023-05-20T10:59:46;22.20;85.80
52459;DHT22;38372;52.902;6.024;2023-05-20T11:02:14;21.90;84.80
52459;DHT22;38372;52.902;6.024;2023-05-20T11:04:44;21.70;84.80
52459;DHT22;38372;52.902;6.024;2023-05-20T11:07:10;21.90;88.10
52459;DHT22;38372;52.902;6.024;2023-05-20T11:09:36;22.20;85.90
52459;DHT22;38372;52.902;6.024;2023-05-20T11:12:02;21.90;82.50
52459;DHT22;38372;52.902;6.024;2023-05-20T11:14:28;21.80;87.40
52459;DHT22;38372;52.902;6.024;2023-05-20T11:16:59;22.00;88.10
52459;DHT22;38372;52.902;6.024;2023-05-20T11:19:25;22.20;87.00
52459;DHT22;38372;52.902;6.024;2023-05-20T11:21:52;22.30;83.60
52459;DHT22;38372;52.902;6.024;2023-05-20T11:24:23;22.40;82.60
52459;DHT22;38372;52.902;6.024;2023-05-20T11:26:50;22.30;84.50
52459;DHT22;38372;52.902;6.024;2023-05-20T11:29:18;22.10;83.20
52459;DHT22;38372;52.902;6.024;2023-05-20T11:31:44;21.90;82.70
52459;DHT22;38372;52.902;6.024;2023-05-20T11:34:11;21.70;83.00
52459;DHT22;38372;52.902;6.024;2023-05-20T11:36:43;21.70;85.40
52459;DHT22;38372;52.902;6.024;2023-05-20T11:39:11;21.80;86.00
52459;DHT22;38372;52.902;6.024;2023-05-20T11:41:38;21.90;87.00
52459;DHT22;38372;52.902;6.024;2023-05-20T11:44:06;21.90;86.60
52459;DHT22;38372;52.902;6.024;2023-05-20T11:46:40;21.90;87.40
52459;DHT22;38372;52.902;6.024;2023-05-20T11:49:06;21.90;83.20
52459;DHT22;38372;52.902;6.024;2023-05-20T11:51:33;22.10;86.50
52459;DHT22;38372;52.902;6.024;2023-05-20T11:54:00;22.50;87.20
52459;DHT22;38372;52.902;6.024;2023-05-20T11:56:32;22.80;86.90
52459;DHT22;38372;52.902;6.024;2023-05-20T11:59:01;22.90;88.20
52459;DHT22;38372;52.902;6.024;2023-05-20T12:01:32;23.10;86.40
52459;DHT22;38372;52.902;6.024;2023-05-20T12:04:08;23.10;85.70
52459;DHT22;38372;52.902;6.024;2023-05-20T12:06:35;22.90;87.20
52459;DHT22;38372;52.902;6.024;2023-05-20T12:09:05;23.00;86.30
52459;DHT22;38372;52.902;6.024;2023-05-20T12:11:36;23.20;86.50
52459;DHT22;38372;52.902;6.024;2023-05-20T12:14:04;23.20;77.90
52459;DHT22;38372;52.902;6.024;2023-05-20T12:16:31;22.90;81.90
52459;DHT22;38372;52.902;6.024;2023-05-20T12:18:58;22.60;80.90
52459;DHT22;38372;52.902;6.024;2023-05-20T12:21:23;22.50;80.70
52459;DHT22;38372;52.902;6.024;2023-05-20T12:23:49;22.40;81.00
52459;DHT22;38372;52.902;6.024;2023-05-20T12:26:25;22.30;81.80
52459;DHT22;38372;52.902;6.024;2023-05-20T12:28:52;22.10;81.60
52459;DHT22;38372;52.902;6.024;2023-05-20T12:31:18;22.00;82.60
52459;DHT22;38372;52.902;6.024;2023-05-20T12:33:44;22.20;83.90
52459;DHT22;38372;52.902;6.024;2023-05-20T12:36:10;22.30;84.50
52459;DHT22;38372;52.902;6.024;2023-05-20T12:38:35;22.20;83.30
52459;DHT22;38372;52.902;6.024;2023-05-20T12:41:01;22.20;81.60
52459;DHT22;38372;52.902;6.024;2023-05-20T12:43:27;22.20;82.70
52459;DHT22;38372;52.902;6.024;2023-05-20T12:45:53;22.00;81.90
52459;DHT22;38372;52.902;6.024;2023-05-20T12:48:19;21.60;82.50
52459;DHT22;38372;52.902;6.024;2023-05-20T12:50:45;21.50;84.10
52459;DHT22;38372;52.902;6.024;2023-05-20T12:53:11;21.70;82.00
52459;DHT22;38372;52.902;6.024;2023-05-20T12:55:36;21.70;83.10
52459;DHT22;38372;52.902;6.024;2023-05-20T12:58:03;22.00;84.90
52459;DHT22;38372;52.902;6.024;2023-05-20T13:00:29;22.20;84.30
52459;DHT22;38372;52.902;6.024;2023-05-20T13:02:54;22.10;84.00
52459;DHT22;38372;52.902;6.024;2023-05-20T13:05:21;21.90;83.80
52459;DHT22;38372;52.902;6.024;2023-05-20T13:07:47;21.80;85.40
52459;DHT22;38372;52.902;6.024;2023-05-20T13:10:13;21.90;86.50
52459;DHT22;38372;52.902;6.024;2023-05-20T13:12:39;22.20;87.50
52459;DHT22;38372;52.902;6.024;2023-05-20T13:15:13;22.30;86.70
52459;DHT22;38372;52.902;6.024;2023-05-20T13:17:40;22.30;85.40
52459;DHT22;38372;52.902;6.024;2023-05-20T13:20:07;22.20;83.90
52459;DHT22;38372;52.902;6.024;2023-05-20T13:22:33;22.00;85.90
52459;DHT22;38372;52.902;6.024;2023-05-20T13:24:59;22.00;84.50
52459;DHT22;38372;52.902;6.024;2023-05-20T13:27:25;21.90;83.30
52459;DHT22;38372;52.902;6.024;2023-05-20T13:29:51;21.70;83.70
52459;DHT22;38372;52.902;6.024;2023-05-20T13:32:17;21.50;84.10
52459;DHT22;38372;52.902;6.024;2023-05-20T13:34:43;21.40;83.30
52459;DHT22;38372;52.902;6.024;2023-05-20T13:37:09;21.40;82.30
52459;DHT22;38372;52.902;6.024;2023-05-20T13:39:35;21.50;83.30
52459;DHT22;38372;52.902;6.024;2023-05-20T13:42:02;21.60;84.60
52459;DHT22;38372;52.902;6.024;2023-05-20T13:44:28;21.50;85.60
52459;DHT22;38372;52.902;6.024;2023-05-20T13:46:55;21.30;85.50
52459;DHT22;38372;52.902;6.024;2023-05-20T13:49:21;21.10;85.70
52459;DHT22;38372;52.902;6.024;2023-05-20T13:51:47;21.00;86.70
52459;DHT22;38372;52.902;6.024;2023-05-20T13:54:12;21.10;87.90
52459;DHT22;38372;52.902;6.024;2023-05-20T13:56:39;21.30;88.00
52459;DHT22;38372;52.902;6.024;2023-05-20T13:59:04;21.30;87.60
52459;DHT22;38372;52.902;6.024;2023-05-20T14:01:30;21.30;87.70
52459;DHT22;38372;52.902;6.024;2023-05-20T14:03:59;21.10;89.10
52459;DHT22;38372;52.902;6.024;2023-05-20T14:06:26;21.20;89.60
52459;DHT22;38372;52.902;6.024;2023-05-20T14:08:54;21.50;89.10
52459;DHT22;38372;52.902;6.024;2023-05-20T14:11:20;21.60;89.80
52459;DHT22;38372;52.902;6.024;2023-05-20T14:13:46;21.80;89.00
52459;DHT22;38372;52.902;6.024;2023-05-20T14:16:12;21.80;83.10
52459;DHT22;38372;52.902;6.024;2023-05-20T14:18:38;21.50;86.80
52459;DHT22;38372;52.902;6.024;2023-05-20T14:21:04;21.30;88.40
52459;DHT22;38372;52.902;6.024;2023-05-20T14:23:30;21.30;90.00
52459;DHT22;38372;52.902;6.024;2023-05-20T14:25:56;21.10;90.40
52459;DHT22;38372;52.902;6.024;2023-05-20T14:28:22;21.20;90.90
52459;DHT22;38372;52.902;6.024;2023-05-20T14:30:47;21.30;91.00
52459;DHT22;38372;52.902;6.024;2023-05-20T14:33:13;21.40;90.90
52459;DHT22;38372;52.902;6.024;2023-05-20T14:35:39;21.30;90.70
52459;DHT22;38372;52.902;6.024;2023-05-20T14:38:05;21.30;90.90
52459;DHT22;38372;52.902;6.024;2023-05-20T14:40:31;21.60;91.10
52459;DHT22;38372;52.902;6.024;2023-05-20T14:42:57;22.20;90.70
52459;DHT22;38372;52.902;6.024;2023-05-20T14:45:23;22.20;90.60
52459;DHT22;38372;52.902;6.024;2023-05-20T14:47:48;21.90;90.30
52459;DHT22;38372;52.902;6.024;2023-05-20T14:50:14;21.40;90.50
52459;DHT22;38372;52.902;6.024;2023-05-20T14:52:40;21.00;90.90
52459;DHT22;38372;52.902;6.024;2023-05-20T14:55:06;20.60;91.40
52459;DHT22;38372;52.902;6.024;2023-05-20T14:57:32;20.50;92.40
52459;DHT22;38372;52.902;6.024;2023-05-20T14:59:58;20.50;92.40
52459;DHT22;38372;52.902;6.024;2023-05-20T15:02:24;20.50;92.50
52459;DHT22;38372;52.902;6.024;2023-05-20T15:04:50;20.40;92.60
52459;DHT22;38372;52.902;6.024;2023-05-20T15:07:16;20.30;93.00
52459;DHT22;38372;52.902;6.024;2023-05-20T15:09:42;20.20;93.70
52459;DHT22;38372;52.902;6.024;2023-05-20T15:12:11;20.20;93.60
52459;DHT22;38372;52.902;6.024;2023-05-20T15:14:37;20.10;93.90
52459;DHT22;38372;52.902;6.024;2023-05-20T15:17:03;20.00;94.10
52459;DHT22;38372;52.902;6.024;2023-05-20T15:19:30;19.80;94.00
52459;DHT22;38372;52.902;6.024;2023-05-20T15:21:57;19.70;94.20
52459;DHT22;38372;52.902;6.024;2023-05-20T15:24:22;19.50;94.30
52459;DHT22;38372;52.902;6.024;2023-05-20T15:26:48;19.20;94.30
52459;DHT22;38372;52.902;6.024;2023-05-20T15:29:14;19.10;95.00
52459;DHT22;38372;52.902;6.024;2023-05-20T15:31:41;19.00;95.00
52459;DHT22;38372;52.902;6.024;2023-05-20T15:34:06;18.90;95.40
52459;DHT22;38372;52.902;6.024;2023-05-20T15:36:32;18.80;95.70
52459;DHT22;38372;52.902;6.024;2023-05-20T15:38:58;18.70;95.90